X  Sluiten METAR luchtvaart weer gegevens      EHGG Eelde Airport
Temperatuur
17°C Temperatuur
12°C Dauwpunt
73% Vochtigheid



Wind
7 MPH
11 KM/U
3 M/S
6 KTS



30°
NNO
Huidig weer

Helder Helder
Luchtdruk 1010.84 (hPa) - 29.85 (inHg)
Zicht 6 (mijl) - 9.7 (km)
Vliegveld
Vliegveld code EHGG

Locatie : Eelde Airport
Afstand: 90 (mi)

Metar:
EHGG 190755Z AUTO 03006KT 350V060 9999 NSC 17/12 Q1011 NOSIG

Tijd: 19-05-2024 09:55 CEST